createdAt,value
2022-12-12T00:01:31.190Z,13.00
2022-12-12T00:03:58.314Z,14.40
2022-12-12T00:06:25.378Z,14.87
2022-12-12T00:08:54.902Z,14.20
2022-12-12T00:11:27.953Z,15.17
2022-12-12T00:13:57.611Z,13.57
2022-12-12T00:16:25.639Z,12.80
2022-12-12T00:18:52.739Z,13.50
2022-12-12T00:21:27.455Z,14.20
2022-12-12T00:23:54.935Z,13.00
2022-12-12T00:26:24.363Z,13.23
2022-12-12T00:28:51.604Z,14.70
2022-12-12T00:31:18.920Z,11.77
2022-12-12T00:33:48.004Z,14.93
2022-12-12T00:36:19.173Z,14.73
2022-12-12T00:38:46.186Z,12.67
2022-12-12T00:41:13.220Z,12.83
2022-12-12T00:43:39.938Z,15.20
2022-12-12T00:46:09.020Z,13.53
2022-12-12T00:48:35.756Z,13.93
2022-12-12T00:51:08.919Z,13.38
2022-12-12T00:53:41.971Z,14.20
2022-12-12T00:56:11.105Z,13.17
2022-12-12T00:58:37.821Z,12.33
2022-12-12T01:01:10.337Z,13.17
2022-12-12T01:03:38.866Z,13.17
2022-12-12T01:06:06.159Z,12.97
2022-12-12T01:08:35.752Z,12.90
2022-12-12T01:11:05.007Z,12.90
2022-12-12T01:13:31.776Z,13.33
2022-12-12T01:15:58.461Z,14.03
2022-12-12T01:18:27.835Z,13.77
2022-12-12T01:20:54.547Z,11.57
2022-12-12T01:23:23.732Z,12.77
2022-12-12T01:26:01.118Z,11.93
2022-12-12T01:28:27.788Z,13.40
2022-12-12T01:30:56.883Z,12.75
2022-12-12T01:33:26.500Z,11.27
2022-12-12T01:35:58.132Z,12.60
2022-12-12T01:38:27.344Z,12.00
2022-12-12T01:40:54.482Z,12.43
2022-12-12T01:43:23.729Z,11.47
2022-12-12T01:45:59.308Z,11.03
2022-12-12T01:48:39.231Z,12.93
2022-12-12T01:51:12.992Z,11.83
2022-12-12T01:53:41.019Z,11.57
2022-12-12T01:56:12.428Z,12.40
2022-12-12T01:58:47.884Z,12.97
2022-12-12T02:01:18.632Z,12.47
2022-12-12T02:03:47.244Z,13.33
2022-12-12T02:06:18.378Z,15.30
2022-12-12T02:08:46.329Z,11.80
2022-12-12T02:11:13.525Z,12.20
2022-12-12T02:13:40.541Z,13.02
2022-12-12T02:16:24.373Z,12.87
2022-12-12T02:18:59.234Z,11.47
2022-12-12T02:21:38.234Z,11.87
2022-12-12T02:24:35.085Z,11.70
2022-12-12T02:27:29.194Z,12.30
2022-12-12T02:30:12.887Z,11.80
2022-12-12T02:33:06.152Z,11.73
2022-12-12T02:35:55.592Z,12.57
2022-12-12T02:38:32.646Z,13.97
2022-12-12T02:41:23.369Z,13.93
2022-12-12T02:44:08.472Z,14.23
2022-12-12T02:47:19.496Z,13.13
2022-12-12T02:50:11.914Z,13.10
2022-12-12T02:52:39.127Z,12.80
2022-12-12T02:55:06.561Z,13.15
2022-12-12T02:57:33.349Z,12.33
2022-12-12T03:00:08.256Z,13.17
2022-12-12T03:02:40.726Z,12.37
2022-12-12T03:05:52.160Z,13.93
2022-12-12T03:08:35.834Z,13.77
2022-12-12T03:11:06.323Z,14.13
2022-12-12T03:14:07.216Z,14.93
2022-12-12T03:17:03.465Z,13.07
2022-12-12T03:19:46.370Z,16.00
2022-12-12T03:22:46.273Z,15.20
2022-12-12T03:25:18.619Z,15.30
2022-12-12T03:28:14.214Z,14.27
2022-12-12T03:30:46.991Z,14.13
2022-12-12T03:33:28.459Z,16.47
2022-12-12T03:36:17.196Z,14.38
2022-12-12T03:38:56.795Z,15.13
2022-12-12T03:41:31.626Z,14.57
2022-12-12T03:44:04.526Z,16.60
2022-12-12T03:46:47.566Z,15.07
2022-12-12T03:49:20.916Z,16.83
2022-12-12T03:52:10.194Z,16.50
2022-12-12T03:55:03.296Z,16.90
2022-12-12T03:57:59.717Z,13.33
2022-12-12T04:00:32.092Z,16.53
2022-12-12T04:03:08.103Z,15.90
2022-12-12T04:06:03.222Z,17.07
2022-12-12T04:08:30.648Z,14.50
2022-12-12T04:11:30.941Z,14.67
2022-12-12T04:14:25.916Z,14.27
2022-12-12T04:17:00.728Z,14.20
2022-12-12T04:20:09.276Z,16.50
2022-12-12T04:23:00.495Z,14.73
2022-12-12T04:26:18.560Z,13.90
2022-12-12T04:29:02.794Z,14.50
2022-12-12T04:31:32.581Z,14.67
2022-12-12T04:34:05.631Z,11.87
2022-12-12T04:36:33.959Z,14.60
2022-12-12T04:39:02.176Z,13.67
2022-12-12T04:41:32.402Z,13.63
2022-12-12T04:44:04.060Z,17.17
2022-12-12T04:46:33.296Z,15.07
2022-12-12T04:49:06.727Z,16.03
2022-12-12T04:51:37.652Z,14.80
2022-12-12T04:54:14.792Z,13.67
2022-12-12T04:56:47.270Z,14.00
2022-12-12T04:59:14.040Z,15.27
2022-12-12T05:01:53.320Z,14.87
2022-12-12T05:04:49.744Z,14.77
2022-12-12T05:07:23.414Z,13.57
2022-12-12T05:09:50.299Z,14.07
2022-12-12T05:12:20.916Z,14.02
2022-12-12T05:14:50.786Z,14.53
2022-12-12T05:17:25.530Z,13.97
2022-12-12T05:19:55.361Z,13.27
2022-12-12T05:22:22.130Z,15.13
2022-12-12T05:24:50.948Z,15.80
2022-12-12T05:27:22.335Z,15.40
2022-12-12T05:29:49.033Z,15.40
2022-12-12T05:32:15.666Z,13.70
2022-12-12T05:34:45.355Z,14.90
2022-12-12T05:37:12.107Z,12.40
2022-12-12T05:39:38.795Z,13.93
2022-12-12T05:42:07.914Z,14.02
2022-12-12T05:44:34.700Z,15.17
2022-12-12T05:47:01.428Z,15.60
2022-12-12T05:49:28.125Z,13.90
2022-12-12T05:52:02.024Z,13.83
2022-12-12T05:54:28.767Z,14.60
2022-12-12T05:56:55.502Z,14.40
2022-12-12T05:59:24.466Z,14.87
2022-12-12T06:01:51.141Z,14.40
2022-12-12T06:04:20.369Z,12.93
2022-12-12T06:06:49.321Z,12.77
2022-12-12T06:09:16.004Z,14.73
2022-12-12T06:11:45.680Z,12.57
2022-12-12T06:14:12.340Z,13.77
2022-12-12T06:16:41.522Z,20.10
2022-12-12T06:19:08.388Z,13.80
2022-12-12T06:21:37.700Z,14.50
2022-12-12T06:24:07.755Z,14.13
2022-12-12T06:26:36.557Z,14.15
2022-12-12T06:29:06.216Z,14.77
2022-12-12T06:31:32.974Z,12.90
2022-12-12T06:34:02.131Z,13.53
2022-12-12T06:36:28.896Z,14.73
2022-12-12T06:38:58.226Z,14.23
2022-12-12T06:41:31.364Z,12.47
2022-12-12T06:44:02.883Z,13.33
2022-12-12T06:46:30.543Z,12.80
2022-12-12T06:48:58.010Z,13.57
2022-12-12T06:51:29.171Z,43.20
2022-12-12T06:53:56.251Z,13.90
2022-12-12T06:56:28.756Z,14.83
2022-12-12T06:58:55.916Z,13.50
2022-12-12T07:01:28.073Z,14.67
2022-12-12T07:03:54.911Z,16.07
2022-12-12T07:06:23.278Z,14.93
2022-12-12T07:08:51.686Z,16.50
2022-12-12T07:11:24.230Z,19.70
2022-12-12T07:13:57.030Z,18.10
2022-12-12T07:16:24.318Z,19.60
2022-12-12T07:18:56.012Z,17.20
2022-12-12T07:21:22.692Z,23.70
2022-12-12T07:23:49.442Z,24.37
2022-12-12T07:26:19.267Z,26.47
2022-12-12T07:28:46.561Z,24.73
2022-12-12T07:31:15.811Z,26.03
2022-12-12T07:33:44.544Z,26.07
2022-12-12T07:36:13.767Z,23.50
2022-12-12T07:38:42.923Z,23.30
2022-12-12T07:41:18.503Z,21.00
2022-12-12T07:43:47.913Z,22.47
2022-12-12T07:46:20.190Z,23.50
2022-12-12T07:48:47.066Z,21.87
2022-12-12T07:51:14.671Z,22.15
2022-12-12T07:53:41.946Z,21.73
2022-12-12T07:56:12.113Z,21.10
2022-12-12T07:58:41.104Z,20.23
2022-12-12T08:01:27.847Z,20.40
2022-12-12T08:03:55.050Z,20.60
2022-12-12T08:06:23.393Z,21.00
2022-12-12T08:08:53.034Z,16.77
2022-12-12T08:11:22.447Z,18.80
2022-12-12T08:13:49.639Z,16.50
2022-12-12T08:16:23.129Z,15.93
2022-12-12T08:18:50.344Z,16.27
2022-12-12T08:21:25.088Z,18.10
2022-12-12T08:23:56.898Z,18.13
2022-12-12T08:26:23.802Z,18.13
2022-12-12T08:28:50.556Z,16.83
2022-12-12T08:31:21.572Z,16.47
2022-12-12T08:33:53.040Z,18.02
2022-12-12T08:36:21.062Z,17.07
2022-12-12T08:38:50.784Z,16.80
2022-12-12T08:41:18.714Z,14.10
2022-12-12T08:43:45.765Z,18.63
2022-12-12T08:46:17.956Z,15.17
2022-12-12T08:48:46.114Z,16.67
2022-12-12T08:51:15.617Z,16.83
2022-12-12T08:53:52.706Z,17.00
2022-12-12T08:56:21.268Z,17.13
2022-12-12T08:58:50.658Z,15.07
2022-12-12T09:01:21.386Z,14.73
2022-12-12T09:03:48.646Z,14.07
2022-12-12T09:06:18.275Z,15.63
2022-12-12T09:08:45.901Z,15.77
2022-12-12T09:11:17.222Z,15.00
2022-12-12T09:13:44.164Z,14.27
2022-12-12T09:16:11.855Z,13.00
2022-12-12T09:18:44.584Z,15.67
2022-12-12T09:21:14.654Z,14.53
2022-12-12T09:23:42.491Z,14.33
2022-12-12T09:26:09.971Z,16.83
2022-12-12T09:28:41.400Z,14.43
2022-12-12T09:31:12.451Z,14.87
2022-12-12T09:33:40.310Z,14.67
2022-12-12T09:36:11.947Z,15.50
2022-12-12T09:38:38.812Z,12.33
2022-12-12T09:41:18.709Z,13.50
2022-12-12T09:43:54.878Z,14.77
2022-12-12T09:46:30.120Z,13.50
2022-12-12T09:50:03.899Z,14.80
2022-12-12T09:52:34.068Z,13.83
2022-12-12T09:55:11.651Z,16.10
2022-12-12T09:57:46.188Z,13.87
2022-12-12T10:00:16.620Z,11.83
2022-12-12T10:02:53.766Z,14.60
2022-12-12T10:05:34.867Z,13.20
2022-12-12T10:08:24.532Z,14.17
2022-12-12T10:10:55.772Z,15.00
2022-12-12T10:13:27.947Z,12.70
2022-12-12T10:15:57.529Z,12.60
2022-12-12T10:18:47.226Z,13.33
2022-12-12T10:21:22.363Z,14.97
2022-12-12T10:23:53.541Z,12.03
2022-12-12T10:26:29.505Z,16.63
2022-12-12T10:29:01.431Z,12.10
2022-12-12T10:31:53.350Z,11.23
2022-12-12T10:34:33.298Z,11.77
2022-12-12T10:37:30.663Z,13.20
2022-12-12T10:39:59.739Z,12.30
2022-12-12T10:42:38.024Z,12.23
2022-12-12T10:45:07.601Z,13.03
2022-12-12T10:47:35.210Z,12.40
2022-12-12T10:50:13.731Z,15.37
2022-12-12T10:52:45.675Z,13.40
2022-12-12T10:55:23.839Z,12.20
2022-12-12T10:58:04.142Z,12.67
2022-12-12T11:00:34.349Z,12.63
2022-12-12T11:03:28.603Z,11.20
2022-12-12T11:05:59.059Z,10.50
2022-12-12T11:08:34.157Z,14.37
2022-12-12T11:11:26.030Z,11.60
2022-12-12T11:13:55.841Z,11.67
2022-12-12T11:16:44.201Z,11.88
2022-12-12T11:19:23.869Z,11.43
2022-12-12T11:21:55.302Z,11.10
2022-12-12T11:24:27.817Z,10.80
2022-12-12T11:27:02.105Z,13.50
2022-12-12T11:29:43.394Z,13.13
2022-12-12T11:32:19.071Z,12.07
2022-12-12T11:34:55.911Z,11.07
2022-12-12T11:37:32.033Z,11.60
2022-12-12T11:40:01.569Z,13.30
2022-12-12T11:42:32.261Z,10.00
2022-12-12T11:45:00.668Z,12.30
2022-12-12T11:47:36.017Z,11.07
2022-12-12T11:50:15.349Z,8.43
2022-12-12T11:52:42.171Z,11.30
2022-12-12T11:55:21.593Z,9.70
2022-12-12T11:58:08.042Z,9.60
2022-12-12T12:00:50.921Z,10.60
2022-12-12T12:03:44.962Z,8.47
2022-12-12T12:06:26.616Z,8.97
2022-12-12T12:09:39.527Z,7.47
2022-12-12T12:12:18.272Z,9.83
2022-12-12T12:15:01.436Z,9.27
2022-12-12T12:17:57.810Z,7.30
2022-12-12T12:20:45.529Z,7.63
2022-12-12T12:23:44.150Z,6.73
2022-12-12T12:26:40.729Z,6.83
2022-12-12T12:29:48.967Z,8.07
2022-12-12T12:32:37.699Z,8.47
2022-12-12T12:35:06.577Z,8.75
2022-12-12T12:37:52.239Z,8.83
2022-12-12T12:40:30.039Z,10.27
2022-12-12T12:42:59.847Z,9.67
2022-12-12T12:45:49.299Z,10.73
2022-12-12T12:48:26.166Z,10.32
2022-12-12T12:50:57.588Z,14.03
2022-12-12T12:53:42.406Z,17.27
2022-12-12T12:56:28.875Z,10.10
2022-12-12T12:59:06.146Z,10.73
2022-12-12T13:01:39.350Z,14.10
2022-12-12T13:04:21.833Z,8.87
2022-12-12T13:07:00.295Z,6.97
2022-12-12T13:09:38.287Z,9.87
2022-12-12T13:12:18.768Z,9.53
2022-12-12T13:14:51.217Z,8.27
2022-12-12T13:17:26.782Z,6.87
2022-12-12T13:19:56.303Z,10.27
2022-12-12T13:22:41.670Z,9.17
2022-12-12T13:25:31.156Z,9.93
2022-12-12T13:28:03.719Z,7.88
2022-12-12T13:30:43.280Z,8.47
2022-12-12T13:33:32.001Z,8.67
2022-12-12T13:36:14.648Z,7.90
2022-12-12T13:38:49.122Z,6.63
2022-12-12T13:41:16.205Z,8.40
2022-12-12T13:43:46.337Z,8.67
2022-12-12T13:46:23.286Z,9.23
2022-12-12T13:48:56.110Z,8.03
2022-12-12T13:51:31.818Z,10.87
2022-12-12T13:54:12.805Z,11.47
2022-12-12T13:56:52.918Z,9.70
2022-12-12T13:59:22.496Z,5.70
2022-12-12T14:02:31.476Z,13.10
2022-12-12T14:05:14.756Z,8.60
2022-12-12T14:07:52.109Z,8.17
2022-12-12T14:10:28.624Z,7.47
2022-12-12T14:12:57.775Z,7.20
2022-12-12T14:15:33.824Z,7.70
2022-12-12T14:18:02.726Z,9.77
2022-12-12T14:20:31.689Z,7.67
2022-12-12T14:23:10.573Z,9.73
2022-12-12T14:25:41.211Z,10.93
2022-12-12T14:28:19.262Z,7.23
2022-12-12T14:30:48.925Z,11.13
2022-12-12T14:33:18.429Z,8.13
2022-12-12T14:35:55.038Z,8.10
2022-12-12T14:38:48.078Z,10.87
2022-12-12T14:41:19.387Z,9.53
2022-12-12T14:44:37.260Z,8.63
2022-12-12T14:46:44.359Z,8.50
2022-12-12T14:49:16.500Z,10.27
2022-12-12T14:51:45.680Z,11.60
2022-12-12T14:54:23.585Z,15.07
2022-12-12T14:56:56.767Z,16.50
2022-12-12T14:59:42.267Z,13.63
2022-12-12T15:02:24.357Z,12.07
2022-12-12T15:05:04.136Z,16.40
2022-12-12T15:07:38.227Z,14.17
2022-12-12T15:10:23.659Z,15.90
2022-12-12T15:12:50.743Z,13.23
2022-12-12T15:15:27.066Z,12.83
2022-12-12T15:17:56.714Z,12.13
2022-12-12T15:20:26.716Z,12.93
2022-12-12T15:22:57.486Z,10.83
2022-12-12T15:25:52.903Z,11.03
2022-12-12T15:28:21.415Z,9.43
2022-12-12T15:30:53.266Z,9.40
2022-12-12T15:33:25.774Z,8.30
2022-12-12T15:36:02.948Z,11.00
2022-12-12T15:38:33.664Z,7.73
2022-12-12T15:41:09.510Z,6.87
2022-12-12T15:43:40.307Z,8.30
2022-12-12T15:46:15.892Z,7.40
2022-12-12T15:48:47.415Z,7.97
2022-12-12T15:51:18.364Z,8.57
2022-12-12T15:53:52.760Z,10.37
2022-12-12T15:56:19.526Z,7.60
2022-12-12T15:58:52.240Z,7.60
2022-12-12T16:01:24.060Z,8.70
2022-12-12T16:03:56.001Z,11.07
2022-12-12T16:06:33.084Z,8.00
2022-12-12T16:09:00.268Z,8.53
2022-12-12T16:11:33.803Z,8.63
2022-12-12T16:14:00.631Z,7.23
2022-12-12T16:16:43.959Z,5.10
2022-12-12T16:19:36.262Z,5.67
2022-12-12T16:22:08.270Z,9.40
2022-12-12T16:24:48.282Z,7.50
2022-12-12T16:27:17.970Z,6.00
2022-12-12T16:29:45.801Z,6.93
2022-12-12T16:32:15.286Z,8.30
2022-12-12T16:34:42.818Z,6.40
2022-12-12T16:37:16.582Z,7.67
2022-12-12T16:39:46.317Z,4.67
2022-12-12T16:42:18.359Z,4.93
2022-12-12T16:44:45.962Z,8.23
2022-12-12T16:47:24.321Z,6.47
2022-12-12T16:49:51.703Z,5.77
2022-12-12T16:52:20.546Z,4.73
2022-12-12T16:54:53.121Z,5.30
2022-12-12T16:57:21.885Z,4.60
2022-12-12T16:59:48.792Z,6.40
2022-12-12T17:02:22.886Z,4.70
2022-12-12T17:04:51.020Z,6.27
2022-12-12T17:07:17.883Z,5.53
2022-12-12T17:09:44.773Z,6.97
2022-12-12T17:12:13.122Z,5.63
2022-12-12T17:14:40.305Z,6.53
2022-12-12T17:17:09.288Z,6.33
2022-12-12T17:19:39.200Z,5.37
2022-12-12T17:22:06.571Z,4.83
2022-12-12T17:24:33.257Z,6.07
2022-12-12T17:27:00.066Z,4.20
2022-12-12T17:29:26.873Z,5.07
2022-12-12T17:31:53.594Z,5.47
2022-12-12T17:34:22.944Z,6.20
2022-12-12T17:36:52.082Z,5.57
2022-12-12T17:39:18.942Z,3.80
2022-12-12T17:41:46.440Z,6.60
2022-12-12T17:44:13.061Z,5.90
2022-12-12T17:46:41.573Z,5.63
2022-12-12T17:49:08.289Z,5.30
2022-12-12T17:51:34.938Z,6.73
2022-12-12T17:54:01.718Z,5.47
2022-12-12T17:56:28.414Z,8.07
2022-12-12T17:58:55.465Z,5.27
2022-12-12T18:01:29.029Z,4.80
2022-12-12T18:03:57.550Z,5.57
2022-12-12T18:06:26.048Z,5.30
2022-12-12T18:08:56.784Z,4.50
2022-12-12T18:11:28.658Z,6.03
2022-12-12T18:13:57.632Z,6.03
2022-12-12T18:16:24.861Z,4.30
2022-12-12T18:18:52.738Z,4.67
2022-12-12T18:21:51.596Z,5.03
2022-12-12T18:24:12.652Z,5.00
2022-12-12T18:26:40.597Z,4.50
2022-12-12T18:29:09.804Z,5.73
2022-12-12T18:31:36.755Z,6.73
2022-12-12T18:34:22.750Z,6.40
2022-12-12T18:36:51.878Z,6.40
2022-12-12T18:39:18.882Z,6.83
2022-12-12T18:41:47.699Z,14.03
2022-12-12T18:44:15.157Z,5.90
2022-12-12T18:46:43.464Z,8.30
2022-12-12T18:49:18.210Z,5.50
2022-12-12T18:51:47.650Z,5.37
2022-12-12T18:54:16.325Z,5.13
2022-12-12T18:56:45.923Z,5.37
2022-12-12T18:59:15.014Z,9.43
2022-12-12T19:01:41.722Z,6.93
2022-12-12T19:04:13.202Z,5.57
2022-12-12T19:06:43.573Z,5.23
2022-12-12T19:09:15.953Z,6.23
2022-12-12T19:11:43.520Z,7.07
2022-12-12T19:14:11.851Z,7.43
2022-12-12T19:16:39.036Z,6.67
2022-12-12T19:19:06.409Z,8.53
2022-12-12T19:21:36.452Z,5.87
2022-12-12T19:24:03.430Z,7.03
2022-12-12T19:26:30.973Z,7.13
2022-12-12T19:29:01.264Z,5.70
2022-12-12T19:31:28.004Z,6.77
2022-12-12T19:33:55.553Z,6.83
2022-12-12T19:36:26.773Z,7.13
2022-12-12T19:38:56.130Z,6.70
2022-12-12T19:41:23.379Z,6.83
2022-12-12T19:43:51.977Z,6.70
2022-12-12T19:46:23.790Z,6.60
2022-12-12T19:48:55.212Z,6.37
2022-12-12T19:51:23.353Z,7.03
2022-12-12T19:53:54.746Z,6.67
2022-12-12T19:56:26.462Z,6.57
2022-12-12T19:58:55.602Z,6.17
2022-12-12T20:01:25.391Z,9.97
2022-12-12T20:03:56.078Z,5.80
2022-12-12T20:06:25.125Z,7.10
2022-12-12T20:08:52.414Z,7.63
2022-12-12T20:11:22.014Z,6.60
2022-12-12T20:13:56.619Z,8.47
2022-12-12T20:16:26.384Z,7.67
2022-12-12T20:18:54.629Z,5.83
2022-12-12T20:21:59.346Z,6.67
2022-12-12T20:24:15.257Z,7.07
2022-12-12T20:26:42.467Z,8.73
2022-12-12T20:29:09.426Z,7.10
2022-12-12T20:31:39.275Z,7.10
2022-12-12T20:34:06.004Z,9.17
2022-12-12T20:36:34.810Z,7.40
2022-12-12T20:39:04.779Z,8.27
2022-12-12T20:41:34.162Z,6.70
2022-12-12T20:44:01.731Z,8.00
2022-12-12T20:46:33.164Z,7.87
2022-12-12T20:49:01.573Z,6.33
2022-12-12T20:54:22.242Z,7.57
2022-12-12T20:56:49.376Z,7.37
2022-12-12T20:59:18.577Z,8.10
2022-12-12T21:01:50.198Z,7.10
2022-12-12T21:04:19.729Z,8.93
2022-12-12T21:06:51.110Z,7.80
2022-12-12T21:09:24.462Z,9.17
2022-12-12T21:11:57.748Z,8.52
2022-12-12T21:14:26.611Z,8.83
2022-12-12T21:16:56.750Z,7.17
2022-12-12T21:19:23.841Z,7.37
2022-12-12T21:21:51.092Z,9.17
2022-12-12T21:24:20.842Z,8.10
2022-12-12T21:26:52.144Z,8.17
2022-12-12T21:29:19.027Z,7.30
2022-12-12T21:31:51.863Z,8.30
2022-12-12T21:34:21.726Z,10.17
2022-12-12T21:36:55.325Z,10.10
2022-12-12T21:39:24.959Z,11.63
2022-12-12T21:41:51.793Z,9.20
2022-12-12T21:44:21.691Z,8.03
2022-12-12T21:46:48.726Z,8.30
2022-12-12T21:49:28.127Z,8.77
2022-12-12T21:52:01.502Z,9.17
2022-12-12T21:54:29.315Z,8.53
2022-12-12T21:57:02.651Z,8.57
2022-12-12T21:59:32.599Z,8.75
2022-12-12T22:02:00.549Z,7.50
2022-12-12T22:04:27.548Z,8.43
2022-12-12T22:06:54.682Z,8.37
2022-12-12T22:09:24.042Z,11.43
2022-12-12T22:11:52.104Z,10.43
2022-12-12T22:14:20.916Z,8.23
2022-12-12T22:16:47.770Z,9.13
2022-12-12T22:19:16.179Z,8.40
2022-12-12T22:21:45.397Z,7.97
2022-12-12T22:24:15.755Z,8.50
2022-12-12T22:26:45.399Z,9.60
2022-12-12T22:29:15.091Z,9.00
2022-12-12T22:31:42.721Z,9.47
2022-12-12T22:34:15.806Z,9.53
2022-12-12T22:36:43.779Z,8.27
2022-12-12T22:39:21.408Z,7.93
2022-12-12T22:41:48.174Z,8.17
2022-12-12T22:44:16.806Z,7.07
2022-12-12T22:46:48.206Z,8.55
2022-12-12T22:49:20.050Z,9.33
2022-12-12T22:51:47.358Z,7.73
2022-12-12T22:54:14.335Z,8.67
2022-12-12T22:56:42.029Z,8.53
2022-12-12T22:59:10.468Z,8.60
2022-12-12T23:01:37.266Z,7.97
2022-12-12T23:04:04.269Z,7.57
2022-12-12T23:06:34.240Z,9.27
2022-12-12T23:09:07.127Z,8.37
2022-12-12T23:11:36.774Z,8.47
2022-12-12T23:14:06.710Z,8.93
2022-12-12T23:16:35.580Z,8.20
2022-12-12T23:19:04.421Z,8.77
2022-12-12T23:21:32.552Z,8.03
2022-12-12T23:24:01.974Z,8.03
2022-12-12T23:26:30.748Z,9.80
2022-12-12T23:29:00.293Z,9.97
2022-12-12T23:31:33.342Z,7.83
2022-12-12T23:34:06.727Z,8.30
2022-12-12T23:36:33.385Z,7.97
2022-12-12T23:39:03.607Z,7.67
2022-12-12T23:41:30.387Z,9.60
2022-12-12T23:43:59.548Z,8.87
2022-12-12T23:46:29.397Z,8.40
2022-12-12T23:49:08.488Z,8.97
2022-12-12T23:51:37.636Z,8.10
2022-12-12T23:54:07.085Z,7.43
2022-12-12T23:56:34.095Z,7.93
2022-12-12T23:59:01.229Z,8.77
